地図

経路データ

SID SEASON NUMBER BASIN SUBBASIN NAME ISO_TIME NATURE LAT LON WMO_WIND WMO_PRES WMO_AGENCY TRACK_TYPE DIST2LAND LANDFALL IFLAG USA_AGENCY USA_ATCF_ID USA_LAT USA_LON USA_RECORD USA_STATUS USA_WIND USA_PRES USA_SSHS USA_R34_NE USA_R34_SE USA_R34_SW USA_R34_NW USA_R50_NE USA_R50_SE USA_R50_SW USA_R50_NW USA_R64_NE USA_R64_SE USA_R64_SW USA_R64_NW USA_POCI USA_ROCI USA_RMW USA_EYE TOKYO_LAT TOKYO_LON TOKYO_GRADE TOKYO_WIND TOKYO_PRES TOKYO_R50_DIR TOKYO_R50_LONG TOKYO_R50_SHORT TOKYO_R30_DIR TOKYO_R30_LONG TOKYO_R30_SHORT TOKYO_LAND CMA_LAT CMA_LON CMA_CAT CMA_WIND CMA_PRES HKO_LAT HKO_LON HKO_CAT HKO_WIND HKO_PRES NEWDELHI_LAT NEWDELHI_LON NEWDELHI_GRADE NEWDELHI_WIND NEWDELHI_PRES NEWDELHI_CI NEWDELHI_DP NEWDELHI_POCI REUNION_LAT REUNION_LON REUNION_TYPE REUNION_WIND REUNION_PRES REUNION_TNUM REUNION_CI REUNION_RMW REUNION_R34_NE REUNION_R34_SE REUNION_R34_SW REUNION_R34_NW REUNION_R50_NE REUNION_R50_SE REUNION_R50_SW REUNION_R50_NW REUNION_R64_NE REUNION_R64_SE REUNION_R64_SW REUNION_R64_NW BOM_LAT BOM_LON BOM_TYPE BOM_WIND BOM_PRES BOM_TNUM BOM_CI BOM_RMW BOM_R34_NE BOM_R34_SE BOM_R34_SW BOM_R34_NW BOM_R50_NE BOM_R50_SE BOM_R50_SW BOM_R50_NW BOM_R64_NE BOM_R64_SE BOM_R64_SW BOM_R64_NW BOM_ROCI BOM_POCI BOM_EYE BOM_POS_METHOD BOM_PRES_METHOD NADI_LAT NADI_LON NADI_CAT NADI_WIND NADI_PRES WELLINGTON_LAT WELLINGTON_LON WELLINGTON_WIND WELLINGTON_PRES DS824_LAT DS824_LON DS824_STAGE DS824_WIND DS824_PRES TD9636_LAT TD9636_LON TD9636_STAGE TD9636_WIND TD9636_PRES TD9635_LAT TD9635_LON TD9635_WIND TD9635_PRES TD9635_ROCI NEUMANN_LAT NEUMANN_LON NEUMANN_CLASS NEUMANN_WIND NEUMANN_PRES MLC_LAT MLC_LON MLC_CLASS MLC_WIND MLC_PRES USA_GUST BOM_GUST BOM_GUST_PER REUNION_GUST REUNION_GUST_PER USA_SEAHGT USA_SEARAD_NE USA_SEARAD_SE USA_SEARAD_SW USA_SEARAD_NW STORM_SPEED STORM_DIR
1962239N16342 1962 69 NA NA BECKY 1962-08-27 06:00:00 TS 16.0000 -18.0000 40 hurdat_atl main 148 148 O_____________ hurdat_atl AL021962 16.0000 -18.0000 TS 40 0 10 275
1962239N16342 1962 69 NA NA BECKY 1962-08-27 09:00:00 TS 16.0452 -18.5074 main 180 180 P_____________ AL021962 16.0452 -18.5074 TS 40 0 10 276
1962239N16342 1962 69 NA NA BECKY 1962-08-27 12:00:00 TS 16.1000 -19.0000 40 hurdat_atl main 224 224 O_____________ hurdat_atl AL021962 16.1000 -19.0000 TS 40 0 9 278
1962239N16342 1962 69 NA NA BECKY 1962-08-27 15:00:00 TS 16.1774 -19.4651 main 272 272 P_____________ AL021962 16.1774 -19.4651 TS 40 0 9 283
1962239N16342 1962 69 NA NA BECKY 1962-08-27 18:00:00 TS 16.3000 -19.9000 40 hurdat_atl main 313 313 O_____________ hurdat_atl AL021962 16.3000 -19.9000 TS 40 0 9 288
1962239N16342 1962 69 NA NA BECKY 1962-08-27 21:00:00 TS 16.4474 -20.3077 main 355 355 P_____________ AL021962 16.4474 -20.3077 TS 40 0 9 298
1962239N16342 1962 69 NA NA BECKY 1962-08-28 00:00:00 TS 16.7000 -20.7000 40 hurdat_atl main 409 409 O_____________ hurdat_atl AL021962 16.7000 -20.7000 TS 40 0 10 310
1962239N16342 1962 69 NA NA BECKY 1962-08-28 03:00:00 TS 17.0975 -21.1224 main 469 469 P_____________ AL021962 17.0975 -21.1224 TS 40 0 12 320
1962239N16342 1962 69 NA NA BECKY 1962-08-28 06:00:00 TS 17.6000 -21.5000 40 hurdat_atl main 536 536 O_____________ hurdat_atl AL021962 17.6000 -21.5000 TS 40 0 12 329
1962239N16342 1962 69 NA NA BECKY 1962-08-28 09:00:00 TS 18.1124 -21.7729 main 576 559 P_____________ AL021962 18.1124 -21.7729 TS 40 0 12 337
1962239N16342 1962 69 NA NA BECKY 1962-08-28 12:00:00 TS 18.7000 -22.0000 40 hurdat_atl main 563 558 O_____________ hurdat_atl AL021962 18.7000 -22.0000 TS 40 0 13 340
1962239N16342 1962 69 NA NA BECKY 1962-08-28 15:00:00 TS 19.3475 -22.2503 main 568 558 P_____________ AL021962 19.3475 -22.2503 TS 40 0 15 341
1962239N16342 1962 69 NA NA BECKY 1962-08-28 18:00:00 TS 20.1000 -22.5000 40 hurdat_atl main 567 566 O_____________ hurdat_atl AL021962 20.1000 -22.5000 TS 40 0 17 344
1962239N16342 1962 69 NA NA BECKY 1962-08-28 21:00:00 TS 20.9550 -22.7503 main 592 592 P_____________ AL021962 20.9550 -22.7503 TS 40 0 19 345
1962239N16342 1962 69 NA NA BECKY 1962-08-29 00:00:00 TS 21.9000 -23.0000 40 hurdat_atl main 619 619 O_____________ hurdat_atl AL021962 21.9000 -23.0000 TS 40 0 20 347
1962239N16342 1962 69 NA NA BECKY 1962-08-29 03:00:00 TS 22.9149 -23.2354 main 649 649 P_____________ AL021962 22.9149 -23.2354 TS 42 0 21 347
1962239N16342 1962 69 NA NA BECKY 1962-08-29 06:00:00 TS 23.9000 -23.5000 45 hurdat_atl main 705 705 O_____________ hurdat_atl AL021962 23.9000 -23.5000 TS 45 0 19 344
1962239N16342 1962 69 NA NA BECKY 1962-08-29 09:00:00 TS 24.7446 -23.7984 main 765 765 P_____________ AL021962 24.7446 -23.7984 TS 47 0 17 338
1962239N16342 1962 69 NA NA BECKY 1962-08-29 12:00:00 TS 25.5000 -24.2000 50 hurdat_atl main 792 792 O_____________ hurdat_atl AL021962 25.5000 -24.2000 TS 50 0 17 330
1962239N16342 1962 69 NA NA BECKY 1962-08-29 15:00:00 TS 26.2297 -24.7330 main 811 811 P_____________ AL021962 26.2297 -24.7330 TS 50 0 18 322
1962239N16342 1962 69 NA NA BECKY 1962-08-29 18:00:00 TS 26.9000 -25.4000 50 hurdat_atl main 859 859 O_____________ hurdat_atl AL021962 26.9000 -25.4000 TS 50 0 18 314
1962239N16342 1962 69 NA NA BECKY 1962-08-29 21:00:00 TS 27.5155 -26.2001 main 926 926 P_____________ AL021962 27.5155 -26.2001 TS 50 0 19 310
1962239N16342 1962 69 NA NA BECKY 1962-08-30 00:00:00 TS 28.1000 -27.0000 50 hurdat_atl main 998 998 O_____________ hurdat_atl AL021962 28.1000 -27.0000 TS 50 0 18 312
1962239N16342 1962 69 NA NA BECKY 1962-08-30 03:00:00 TS 28.6848 -27.6755 main 1064 1064 P_____________ AL021962 28.6848 -27.6755 TS 50 0 16 319
1962239N16342 1962 69 NA NA BECKY 1962-08-30 06:00:00 TS 29.3000 -28.2000 50 hurdat_atl main 1114 1114 O_____________ hurdat_atl AL021962 29.3000 -28.2000 TS 50 0 15 327
1962239N16342 1962 69 NA NA BECKY 1962-08-30 09:00:00 TS 29.9771 -28.6414 main 1159 1159 P_____________ AL021962 29.9771 -28.6414 TS 50 0 15 340
1962239N16342 1962 69 NA NA BECKY 1962-08-30 12:00:00 TS 30.7000 -28.8000 50 hurdat_atl main 1189 1184 O_____________ hurdat_atl AL021962 30.7000 -28.8000 TS 50 0 15 2
1962239N16342 1962 69 NA NA BECKY 1962-08-30 15:00:00 TS 31.4349 -28.5783 main 1187 1167 P_____________ AL021962 31.4349 -28.5783 TS 50 0 16 22
1962239N16342 1962 69 NA NA BECKY 1962-08-30 18:00:00 TS 32.2000 -28.1000 50 hurdat_atl main 1167 1151 O_____________ hurdat_atl AL021962 32.2000 -28.1000 TS 50 0 18 28
1962239N16342 1962 69 NA NA BECKY 1962-08-30 21:00:00 TS 32.9920 -27.6163 main 1156 1146 P_____________ AL021962 32.9920 -27.6163 TS 50 0 19 30
1962239N16342 1962 69 NA NA BECKY 1962-08-31 00:00:00 TS 33.8000 -27.0000 50 hurdat_atl main 1146 1134 O_____________ hurdat_atl AL021962 33.8000 -27.0000 TS 50 0 20 35
1962239N16342 1962 69 NA NA BECKY 1962-08-31 03:00:00 TS 34.6001 -26.2370 main 1133 1131 P_____________ AL021962 34.6001 -26.2370 TS 47 0 21 39
1962239N16342 1962 69 NA NA BECKY 1962-08-31 06:00:00 TS 35.4000 -25.4000 45 hurdat_atl main 1132 1129 O_____________ hurdat_atl AL021962 35.4000 -25.4000 TS 45 0 21 40
1962239N16342 1962 69 NA NA BECKY 1962-08-31 09:00:00 TS 36.1843 -24.6051 main 1144 1144 P_____________ AL021962 36.1843 -24.6051 TS 42 0 21 39
1962239N16342 1962 69 NA NA BECKY 1962-08-31 12:00:00 TS 37.0000 -23.8000 40 hurdat_atl main 1169 1169 O_____________ hurdat_atl AL021962 37.0000 -23.8000 TS 40 0 21 37
1962239N16342 1962 69 NA NA BECKY 1962-08-31 15:00:00 TS 37.8754 -23.0206 main 1177 1097 P_____________ AL021962 37.8754 -23.0206 TS 37 0 22 37
1962239N16342 1962 69 NA NA BECKY 1962-08-31 18:00:00 ET 38.8000 -22.1000 35 hurdat_atl main 1087 991 O_____________ hurdat_atl AL021962 38.8000 -22.1000 EX 35 -4 25 41
1962239N16342 1962 69 NA NA BECKY 1962-08-31 21:00:00 ET 39.7495 -20.8971 main 983 883 P_____________ AL021962 39.7495 -20.8971 EX 30 -4 28 46
1962239N16342 1962 69 NA NA BECKY 1962-09-01 00:00:00 ET 40.7000 -19.5000 25 hurdat_atl main 876 O_____________ hurdat_atl AL021962 40.7000 -19.5000 EX 25 -4 28 48

IBTrACS Databaseについて

本データベースは、米国NOAAが公開する1842年以降の世界の熱帯低気圧のベストトラックデータアーカイブInternational Best Track Archive for Climate Stewardship (IBTrACS)を、ウェブで閲覧しやすい形式に変換したものです。

最終更新日:2021-12-03